logo
Rechercher aéroport 
image banner adimage banner adimage banner ad
image banner ad

O20 - Kingdon Airpark

Situé à Lodi, United States

ICAO - O20, IATA -

Données fournies par Airmate  

Information générale

Coordonnées: N38°5'30" W121°21'34"
Élévation : 15 feet MSL.
Variation magnétique : 16° East
Voir autres Aéroports à California

Données opérationnelles

Special qualification required
Heure actuelle UTC:
Heure actuelle locale:
Météo à : KSCK - Stockton Metropolitan ( 24 km )
METAR: KSCK 261355Z 35005KT 10SM CLR 16/13 A2993 RMK AO2 SLP134 T01610128
TAF: KSCK 261120Z 2612/2712 31008KT P6SM SKC
Voir NOTAMs / SUP AIP / TFR affectant cet aéroport [VIEW]
Fréquences de communication: [VIEW]

Pistes:

Identifiant RWYQFULongueur (ft)Largeur (ft)SurfaceLDA (ft)
12370560ASPH
30370560ASPH

Coordonnées de l'aéroport

Adresse: Lodi United States

Vue satellite de O20